createdAt,value
2023-04-20T00:02:25.564Z,18.27
2023-04-20T00:04:55.580Z,19.93
2023-04-20T00:07:28.076Z,19.30
2023-04-20T00:09:57.195Z,18.53
2023-04-20T00:12:26.117Z,18.17
2023-04-20T00:14:56.416Z,17.47
2023-04-20T00:17:29.555Z,17.77
2023-04-20T00:19:59.574Z,17.00
2023-04-20T00:22:31.490Z,16.97
2023-04-20T00:25:00.738Z,17.60
2023-04-20T00:27:31.907Z,16.83
2023-04-20T00:30:01.331Z,17.77
2023-04-20T00:32:32.949Z,16.87
2023-04-20T00:35:03.328Z,16.27
2023-04-20T00:37:32.637Z,17.13
2023-04-20T00:40:02.153Z,15.67
2023-04-20T00:42:32.962Z,17.60
2023-04-20T00:45:03.109Z,16.90
2023-04-20T00:47:34.660Z,16.67
2023-04-20T00:50:06.332Z,16.83
2023-04-20T00:52:36.344Z,16.87
2023-04-20T00:55:09.662Z,17.33
2023-04-20T00:57:40.647Z,17.73
2023-04-20T01:00:11.838Z,16.40
2023-04-20T01:02:43.030Z,17.67
2023-04-20T01:05:12.545Z,17.00
2023-04-20T01:07:41.953Z,17.50
2023-04-20T01:10:12.538Z,16.70
2023-04-20T01:12:42.590Z,17.53
2023-04-20T01:15:13.450Z,16.87
2023-04-20T01:17:44.685Z,17.40
2023-04-20T01:20:14.919Z,17.20
2023-04-20T01:22:50.223Z,17.53
2023-04-20T01:25:21.038Z,17.00
2023-04-20T01:27:50.580Z,17.27
2023-04-20T01:30:19.468Z,16.90
2023-04-20T01:32:49.265Z,16.17
2023-04-20T01:35:18.544Z,16.50
2023-04-20T01:37:51.284Z,15.47
2023-04-20T01:40:20.964Z,15.97
2023-04-20T01:42:49.860Z,14.87
2023-04-20T01:45:18.937Z,15.17
2023-04-20T01:47:48.186Z,14.83
2023-04-20T01:50:18.011Z,15.57
2023-04-20T01:52:50.146Z,14.80
2023-04-20T01:55:20.309Z,14.80
2023-04-20T01:57:49.581Z,15.33
2023-04-20T02:00:19.055Z,15.33
2023-04-20T02:02:48.143Z,15.57
2023-04-20T02:05:19.330Z,14.73
2023-04-20T02:07:50.345Z,14.93
2023-04-20T02:10:19.807Z,15.57
2023-04-20T02:12:49.741Z,14.50
2023-04-20T02:15:19.081Z,15.63
2023-04-20T02:17:52.882Z,15.17
2023-04-20T02:20:22.131Z,15.20
2023-04-20T02:22:53.562Z,14.03
2023-04-20T02:25:23.342Z,15.60
2023-04-20T02:27:55.633Z,14.43
2023-04-20T02:30:25.188Z,14.50
2023-04-20T02:32:54.469Z,13.97
2023-04-20T02:35:23.472Z,14.67
2023-04-20T02:37:53.872Z,14.93
2023-04-20T02:40:24.527Z,14.90
2023-04-20T02:42:54.789Z,14.73
2023-04-20T02:45:24.472Z,14.63
2023-04-20T02:47:55.241Z,15.70
2023-04-20T02:50:24.512Z,15.17
2023-04-20T02:53:05.189Z,15.13
2023-04-20T02:55:36.739Z,14.90
2023-04-20T02:58:19.365Z,14.73
2023-04-20T03:01:07.665Z,15.43
2023-04-20T03:03:39.853Z,14.83
2023-04-20T03:06:13.596Z,16.43
2023-04-20T03:08:50.427Z,14.87
2023-04-20T03:11:47.659Z,15.80
2023-04-20T03:14:29.108Z,15.37
2023-04-20T03:16:59.205Z,14.83
2023-04-20T03:19:28.548Z,16.57
2023-04-20T03:21:57.539Z,16.87
2023-04-20T03:24:28.611Z,15.53
2023-04-20T03:27:01.276Z,15.73
2023-04-20T03:29:38.944Z,16.60
2023-04-20T03:32:08.316Z,16.63
2023-04-20T03:34:37.189Z,17.70
2023-04-20T03:37:07.902Z,16.97
2023-04-20T03:39:38.771Z,17.53
2023-04-20T03:42:08.034Z,17.77
2023-04-20T03:44:37.463Z,17.93
2023-04-20T03:47:08.061Z,18.33
2023-04-20T03:49:37.723Z,17.33
2023-04-20T03:52:09.427Z,18.17
2023-04-20T03:54:41.226Z,18.53
2023-04-20T03:57:11.154Z,17.77
2023-04-20T03:59:41.495Z,18.20
2023-04-20T04:02:13.743Z,19.13
2023-04-20T04:04:45.963Z,19.33
2023-04-20T04:10:42.261Z,18.63
2023-04-20T04:13:11.544Z,18.73
2023-04-20T04:15:43.073Z,19.10
2023-04-20T04:18:15.539Z,19.13
2023-04-20T04:20:44.956Z,19.53
2023-04-20T04:23:15.092Z,20.43
2023-04-20T04:25:52.776Z,20.20
2023-04-20T04:28:26.561Z,19.67
2023-04-20T04:31:17.716Z,20.43
2023-04-20T04:33:48.262Z,20.57
2023-04-20T04:36:29.318Z,21.07
2023-04-20T04:39:00.310Z,21.60
2023-04-20T04:41:37.476Z,21.63
2023-04-20T04:44:17.364Z,21.17
2023-04-20T04:46:48.180Z,21.07
2023-04-20T04:49:17.296Z,21.20
2023-04-20T04:51:47.418Z,20.93
2023-04-20T04:54:16.400Z,21.07
2023-04-20T04:56:46.867Z,21.53
2023-04-20T04:59:16.311Z,21.33
2023-04-20T05:01:45.389Z,21.87
2023-04-20T05:04:15.131Z,21.63
2023-04-20T05:06:44.233Z,22.17
2023-04-20T05:09:13.238Z,22.27
2023-04-20T05:11:42.658Z,23.43
2023-04-20T05:14:13.348Z,22.30
2023-04-20T05:16:42.042Z,23.10
2023-04-20T05:19:10.656Z,22.63
2023-04-20T05:21:40.168Z,21.20
2023-04-20T05:24:09.570Z,21.80
2023-04-20T05:26:38.654Z,23.83
2023-04-20T05:29:07.938Z,23.37
2023-04-20T05:31:37.916Z,23.33
2023-04-20T05:34:07.289Z,23.30
2023-04-20T05:36:36.634Z,22.93
2023-04-20T05:39:06.477Z,24.13
2023-04-20T05:41:39.136Z,23.80
2023-04-20T05:44:08.238Z,23.10
2023-04-20T05:46:38.328Z,24.07
2023-04-20T05:49:08.088Z,24.03
2023-04-20T05:51:37.122Z,24.57
2023-04-20T05:54:06.919Z,24.20
2023-04-20T05:56:36.120Z,24.93
2023-04-20T05:59:05.648Z,23.73
2023-04-20T06:01:34.849Z,24.03
2023-04-20T06:04:05.952Z,24.47
2023-04-20T06:06:35.711Z,24.63
2023-04-20T06:09:06.647Z,26.47
2023-04-20T06:11:35.977Z,25.43
2023-04-20T06:14:05.276Z,24.57
2023-04-20T06:16:34.384Z,24.67
2023-04-20T06:19:05.014Z,24.57
2023-04-20T06:21:35.686Z,24.43
2023-04-20T06:24:04.957Z,25.33
2023-04-20T06:26:35.365Z,25.60
2023-04-20T06:29:04.562Z,24.03
2023-04-20T06:31:33.261Z,24.75
2023-04-20T06:34:01.870Z,26.60
2023-04-20T06:36:34.992Z,25.13
2023-04-20T06:39:06.117Z,24.07
2023-04-20T06:41:34.960Z,23.97
2023-04-20T06:44:10.734Z,22.87
2023-04-20T06:46:42.301Z,24.90
2023-04-20T06:49:11.452Z,25.00
2023-04-20T06:51:42.551Z,24.53
2023-04-20T06:54:11.458Z,24.83
2023-04-20T06:56:40.967Z,24.50
2023-04-20T06:59:11.090Z,22.60
2023-04-20T07:01:42.113Z,23.20
2023-04-20T07:04:12.282Z,23.13
2023-04-20T07:06:42.727Z,22.50
2023-04-20T07:09:12.688Z,24.37
2023-04-20T07:14:50.109Z,23.57
2023-04-20T07:17:19.136Z,24.13
2023-04-20T07:19:48.547Z,24.60
2023-04-20T07:22:19.500Z,22.87
2023-04-20T07:24:48.020Z,23.73
2023-04-20T07:27:17.034Z,23.67
2023-04-20T07:29:46.414Z,24.03
2023-04-20T07:32:16.485Z,25.40
2023-04-20T07:34:45.369Z,24.27
2023-04-20T07:37:14.249Z,24.30
2023-04-20T07:39:44.853Z,23.43
2023-04-20T07:42:14.143Z,24.30
2023-04-20T07:44:43.473Z,23.37
2023-04-20T07:47:11.958Z,24.77
2023-04-20T07:49:41.321Z,24.10
2023-04-20T07:52:16.889Z,24.90
2023-04-20T07:54:48.627Z,23.83
2023-04-20T07:57:18.312Z,22.97
2023-04-20T07:59:48.858Z,23.37
2023-04-20T08:02:18.995Z,22.30
2023-04-20T08:04:49.481Z,23.53
2023-04-20T08:07:18.915Z,22.67
2023-04-20T08:09:49.476Z,22.97
2023-04-20T08:12:18.195Z,23.40
2023-04-20T08:14:47.609Z,21.60
2023-04-20T08:17:17.170Z,23.43
2023-04-20T08:19:46.565Z,22.90
2023-04-20T08:22:15.907Z,22.30
2023-04-20T08:24:48.849Z,21.60
2023-04-20T08:27:19.492Z,23.53
2023-04-20T08:29:49.883Z,22.47
2023-04-20T08:32:23.206Z,22.37
2023-04-20T08:34:52.176Z,22.87
2023-04-20T08:37:21.506Z,24.00
2023-04-20T08:39:51.879Z,25.27
2023-04-20T08:42:23.647Z,25.37
2023-04-20T08:44:55.290Z,24.37
2023-04-20T08:47:24.725Z,27.27
2023-04-20T08:49:55.904Z,25.63
2023-04-20T08:52:25.298Z,24.17
2023-04-20T08:54:57.349Z,25.60
2023-04-20T08:57:28.814Z,25.43
2023-04-20T09:00:00.420Z,26.87
2023-04-20T09:02:29.469Z,25.23
2023-04-20T09:05:09.095Z,24.87
2023-04-20T09:07:38.433Z,24.83
2023-04-20T09:10:08.249Z,24.37
2023-04-20T09:12:44.730Z,26.00
2023-04-20T09:15:25.944Z,25.33
2023-04-20T09:17:55.413Z,27.57
2023-04-20T09:20:32.128Z,25.43
2023-04-20T09:23:13.622Z,25.33
2023-04-20T09:25:43.966Z,25.43
2023-04-20T09:28:15.279Z,24.20
2023-04-20T09:30:46.262Z,23.30
2023-04-20T09:33:15.804Z,23.60
2023-04-20T09:35:46.375Z,23.63
2023-04-20T09:38:18.491Z,23.90
2023-04-20T09:40:47.594Z,23.17
2023-04-20T09:43:25.229Z,22.30
2023-04-20T09:45:56.580Z,22.33
2023-04-20T09:48:26.012Z,21.67
2023-04-20T09:50:55.703Z,22.83
2023-04-20T09:53:25.560Z,22.20
2023-04-20T09:55:54.403Z,22.67
2023-04-20T09:58:24.568Z,22.80
2023-04-20T10:00:53.898Z,23.17
2023-04-20T10:03:22.883Z,22.63
2023-04-20T10:05:55.687Z,22.35
2023-04-20T10:08:26.155Z,22.02
2023-04-20T10:10:55.021Z,22.58
2023-04-20T10:13:35.776Z,21.80
2023-04-20T10:16:04.734Z,21.88
2023-04-20T10:18:33.523Z,22.42
2023-04-20T10:21:09.852Z,21.92
2023-04-20T10:23:50.675Z,22.33
2023-04-20T10:26:19.458Z,21.52
2023-04-20T10:28:49.769Z,20.38
2023-04-20T10:31:20.685Z,20.75
2023-04-20T10:33:59.956Z,22.17
2023-04-20T10:36:31.614Z,23.35
2023-04-20T10:39:02.768Z,23.13
2023-04-20T10:41:31.755Z,22.67
2023-04-20T10:44:10.319Z,22.52
2023-04-20T10:46:39.471Z,22.83
2023-04-20T10:49:09.293Z,23.52
2023-04-20T10:51:37.883Z,22.35
2023-04-20T10:54:08.473Z,21.38
2023-04-20T10:56:42.186Z,21.38
2023-04-20T10:59:14.711Z,21.67
2023-04-20T11:01:44.203Z,22.02
2023-04-20T11:04:14.475Z,22.42
2023-04-20T11:06:47.147Z,22.58
2023-04-20T11:09:20.682Z,21.73
2023-04-20T11:12:00.666Z,22.27
2023-04-20T11:14:31.772Z,21.90
2023-04-20T11:17:00.708Z,21.65
2023-04-20T11:19:30.715Z,22.33
2023-04-20T11:22:00.394Z,20.73
2023-04-20T11:24:31.479Z,20.60
2023-04-20T11:27:02.572Z,21.85
2023-04-20T11:29:38.503Z,21.17
2023-04-20T11:32:09.920Z,19.88
2023-04-20T11:34:43.427Z,19.15
2023-04-20T11:37:14.049Z,18.17
2023-04-20T11:39:43.506Z,20.15
2023-04-20T11:42:12.326Z,20.17
2023-04-20T11:44:42.946Z,20.63
2023-04-20T11:47:11.950Z,20.48
2023-04-20T11:49:41.198Z,20.80
2023-04-20T11:52:10.279Z,19.85
2023-04-20T11:54:39.929Z,19.58
2023-04-20T11:57:09.187Z,17.50
2023-04-20T11:59:39.211Z,18.45
2023-04-20T12:02:09.773Z,19.00
2023-04-20T13:34:29.079Z,13.25
2023-04-20T13:36:58.604Z,13.57
2023-04-20T13:39:28.214Z,13.23
2023-04-20T13:41:57.198Z,13.38
2023-04-20T13:44:26.174Z,12.18
2023-04-20T13:46:55.296Z,12.43
2023-04-20T13:49:26.400Z,11.65
2023-04-20T14:16:01.225Z,7.88
2023-04-20T14:18:31.659Z,7.47
2023-04-20T14:21:00.838Z,6.47
2023-04-20T14:23:29.498Z,4.55
2023-04-20T14:26:00.250Z,4.75
2023-04-20T14:28:30.712Z,3.85
2023-04-20T14:31:01.288Z,4.40
2023-04-20T14:33:30.598Z,4.03
2023-04-20T14:35:59.979Z,4.20
2023-04-20T14:42:54.554Z,3.97
2023-04-20T14:45:24.069Z,3.85
2023-04-20T14:47:55.756Z,4.22
2023-04-20T14:50:28.099Z,3.78
2023-04-20T14:52:58.144Z,4.40
2023-04-20T14:55:27.648Z,3.53
2023-04-20T14:57:59.724Z,4.80
2023-04-20T15:00:29.858Z,4.07
2023-04-20T15:03:00.069Z,4.22
2023-04-20T15:05:30.430Z,4.78
2023-04-20T15:07:59.592Z,4.38
2023-04-20T15:10:28.995Z,4.90
2023-04-20T15:13:02.157Z,4.50
2023-04-20T15:15:46.942Z,4.70
2023-04-20T15:18:17.763Z,4.55
2023-04-20T15:20:47.746Z,4.93
2023-04-20T15:23:17.069Z,4.50
2023-04-20T15:25:45.992Z,5.50
2023-04-20T15:28:16.935Z,4.97
2023-04-20T15:30:46.428Z,4.70
2023-04-20T15:33:15.582Z,4.80
2023-04-20T15:35:44.949Z,4.90
2023-04-20T15:38:13.726Z,5.28
2023-04-20T15:40:42.685Z,6.25
2023-04-20T15:43:11.593Z,5.88
2023-04-20T15:45:44.730Z,6.10
2023-04-20T15:48:14.171Z,5.85
2023-04-20T15:50:42.785Z,5.95
2023-04-20T15:53:12.509Z,5.72
2023-04-20T15:55:41.267Z,6.35
2023-04-20T15:58:10.382Z,6.28
2023-04-20T16:00:40.403Z,5.97
2023-04-20T16:03:09.880Z,6.88
2023-04-20T16:05:39.586Z,5.70
2023-04-20T16:08:08.875Z,6.03
2023-04-20T16:10:37.605Z,5.95
2023-04-20T16:13:06.615Z,6.13
2023-04-20T16:15:36.184Z,5.88
2023-04-20T16:18:07.105Z,6.38
2023-04-20T16:20:36.379Z,5.32
2023-04-20T16:23:05.956Z,5.45
2023-04-20T16:25:35.357Z,7.45
2023-04-20T16:28:04.997Z,6.88
2023-04-20T16:30:34.430Z,6.25
2023-04-20T16:33:03.739Z,6.95
2023-04-20T16:35:34.629Z,6.50
2023-04-20T16:38:04.006Z,6.25
2023-04-20T16:40:32.985Z,6.60
2023-04-20T16:43:02.850Z,6.40
2023-04-20T16:45:32.337Z,6.72
2023-04-20T16:48:01.299Z,7.32
2023-04-20T16:50:30.379Z,6.20
2023-04-20T16:53:01.421Z,6.25
2023-04-20T16:55:32.358Z,6.35
2023-04-20T16:58:01.514Z,7.45
2023-04-20T17:00:31.778Z,6.90
2023-04-20T17:03:02.928Z,7.55
2023-04-20T17:05:42.131Z,6.95
2023-04-20T17:08:13.283Z,6.82
2023-04-20T17:10:42.723Z,7.00
2023-04-20T17:13:12.435Z,7.33
2023-04-20T17:15:43.050Z,7.53
2023-04-20T17:18:12.980Z,7.30
2023-04-20T17:20:43.110Z,7.70
2023-04-20T17:23:13.873Z,7.73
2023-04-20T17:25:45.901Z,7.33
2023-04-20T17:28:15.950Z,6.83
2023-04-20T17:30:45.009Z,7.53
2023-04-20T17:33:15.069Z,6.73
2023-04-20T17:35:46.391Z,7.07
2023-04-20T17:38:17.356Z,7.03
2023-04-20T17:40:46.868Z,6.97
2023-04-20T17:43:16.214Z,7.07
2023-04-20T17:45:46.039Z,7.80
2023-04-20T17:48:15.500Z,7.63
2023-04-20T17:50:44.686Z,7.60
2023-04-20T17:53:13.863Z,6.20
2023-04-20T17:55:44.789Z,6.93
2023-04-20T17:58:15.361Z,7.67
2023-04-20T18:00:45.070Z,6.97
2023-04-20T18:03:16.656Z,7.63
2023-04-20T18:05:47.012Z,6.90
2023-04-20T18:08:18.064Z,6.93
2023-04-20T18:10:49.480Z,7.10
2023-04-20T18:13:21.661Z,7.80
2023-04-20T18:15:53.709Z,7.43
2023-04-20T18:18:23.047Z,8.77
2023-04-20T18:20:52.262Z,7.33
2023-04-20T18:23:21.651Z,8.33
2023-04-20T18:25:53.653Z,8.57
2023-04-20T18:28:23.700Z,8.13
2023-04-20T18:30:53.310Z,8.50
2023-04-20T18:33:22.890Z,8.53
2023-04-20T18:35:52.038Z,8.60
2023-04-20T18:38:21.545Z,8.93
2023-04-20T18:40:53.098Z,8.70
2023-04-20T18:43:22.187Z,9.00
2023-04-20T18:45:51.689Z,8.83
2023-04-20T18:48:28.888Z,9.13
2023-04-20T18:50:58.670Z,9.60
2023-04-20T18:53:28.115Z,8.90
2023-04-20T18:56:02.422Z,7.67
2023-04-20T18:58:31.936Z,8.07
2023-04-20T19:01:03.879Z,7.43
2023-04-20T19:03:33.810Z,8.23
2023-04-20T19:06:03.284Z,10.90
2023-04-20T19:08:34.649Z,10.13
2023-04-20T19:11:05.677Z,12.03
2023-04-20T19:13:34.741Z,11.97
2023-04-20T19:16:05.496Z,12.20
2023-04-20T19:18:34.890Z,13.20
2023-04-20T19:21:04.538Z,12.90
2023-04-20T19:23:36.245Z,11.73
2023-04-20T19:26:08.377Z,12.63
2023-04-20T19:28:37.788Z,11.80
2023-04-20T19:31:09.094Z,11.43
2023-04-20T19:33:39.158Z,11.93
2023-04-20T19:36:08.592Z,10.50
2023-04-20T19:38:39.124Z,11.50
2023-04-20T19:41:09.810Z,10.60
2023-04-20T19:43:40.251Z,12.10
2023-04-20T19:46:10.192Z,10.30
2023-04-20T19:48:39.709Z,10.13
2023-04-20T19:51:10.759Z,10.97
2023-04-20T19:53:39.682Z,11.73
2023-04-20T19:56:10.303Z,11.60
2023-04-20T19:58:42.146Z,10.40
2023-04-20T20:01:11.843Z,10.20
2023-04-20T20:03:40.993Z,9.50
2023-04-20T20:06:10.467Z,9.80
2023-04-20T20:08:39.869Z,10.57
2023-04-20T20:11:11.771Z,9.90
2023-04-20T20:13:41.114Z,9.97
2023-04-20T20:16:10.593Z,10.63
2023-04-20T20:18:40.489Z,9.90
2023-04-20T20:21:10.161Z,10.40
2023-04-20T20:23:39.384Z,10.40
2023-04-20T20:26:08.953Z,8.83
2023-04-20T20:28:40.900Z,10.60
2023-04-20T20:31:11.121Z,9.07
2023-04-20T20:33:41.680Z,9.50
2023-04-20T20:36:11.306Z,9.37
2023-04-20T20:38:41.610Z,8.83
2023-04-20T20:41:11.621Z,10.10
2023-04-20T20:43:43.681Z,9.60
2023-04-20T20:46:12.717Z,10.50
2023-04-20T20:48:43.799Z,9.83
2023-04-20T20:51:13.742Z,10.70
2023-04-20T20:53:42.651Z,9.17
2023-04-20T20:56:11.820Z,10.80
2023-04-20T20:58:42.643Z,10.93
2023-04-20T21:01:13.226Z,10.53
2023-04-20T21:03:42.669Z,11.07
2023-04-20T21:06:17.658Z,10.43
2023-04-20T21:08:47.278Z,10.47
2023-04-20T21:11:18.504Z,10.33
2023-04-20T21:13:49.466Z,11.23
2023-04-20T21:16:18.797Z,10.67
2023-04-20T21:18:47.818Z,11.33
2023-04-20T21:21:17.383Z,10.27
2023-04-20T21:23:49.152Z,11.50
2023-04-20T21:26:19.054Z,12.63
2023-04-20T21:28:53.699Z,13.67
2023-04-20T21:31:23.715Z,13.50
2023-04-20T21:33:53.043Z,14.43
2023-04-20T21:36:23.072Z,13.23
2023-04-20T21:38:52.496Z,13.67
2023-04-20T21:41:22.122Z,12.77
2023-04-20T21:43:53.780Z,14.73
2023-04-20T21:46:22.990Z,12.67
2023-04-20T21:48:53.188Z,12.67
2023-04-20T21:51:22.759Z,14.03
2023-04-20T21:53:53.046Z,13.70
2023-04-20T21:56:22.084Z,14.63
2023-04-20T21:58:52.793Z,13.33
2023-04-20T22:01:21.772Z,14.33
2023-04-20T22:03:51.187Z,13.43
2023-04-20T22:06:20.868Z,14.97
2023-04-20T22:08:50.382Z,14.13
2023-04-20T22:11:19.646Z,14.17
2023-04-20T22:13:48.866Z,11.97
2023-04-20T22:16:22.038Z,12.40
2023-04-20T22:18:51.839Z,12.30
2023-04-20T22:21:21.113Z,13.00
2023-04-20T22:23:49.851Z,12.93
2023-04-20T22:26:19.862Z,12.27
2023-04-20T22:28:49.060Z,11.87
2023-04-20T22:31:19.764Z,13.77
2023-04-20T22:33:48.851Z,13.80
2023-04-20T22:36:19.081Z,13.87
2023-04-20T22:38:48.250Z,14.10
2023-04-20T22:41:17.651Z,13.50
2023-04-20T22:43:46.744Z,13.20
2023-04-20T22:46:15.743Z,13.13
2023-04-20T22:48:48.514Z,12.20
2023-04-20T22:51:18.364Z,13.60
2023-04-20T22:53:47.510Z,13.43
2023-04-20T22:56:16.540Z,13.17
2023-04-20T22:58:45.870Z,15.33
2023-04-20T23:01:15.171Z,12.37
2023-04-20T23:03:45.596Z,11.90
2023-04-20T23:06:17.117Z,12.63
2023-04-20T23:08:47.043Z,12.90
2023-04-20T23:11:17.711Z,13.83
2023-04-20T23:13:47.146Z,12.17
2023-04-20T23:16:16.986Z,13.63
2023-04-20T23:18:48.529Z,12.93
2023-04-20T23:21:17.676Z,12.80
2023-04-20T23:23:46.684Z,13.43
2023-04-20T23:26:18.277Z,13.40
2023-04-20T23:28:47.424Z,11.87
2023-04-20T23:31:16.967Z,12.13
2023-04-20T23:33:48.073Z,12.70
2023-04-20T23:36:17.349Z,12.77
2023-04-20T23:38:46.360Z,13.07
2023-04-20T23:41:16.960Z,13.30
2023-04-20T23:43:45.828Z,13.60
2023-04-20T23:46:15.804Z,14.60
2023-04-20T23:48:47.078Z,14.30
2023-04-20T23:51:15.887Z,14.43
2023-04-20T23:53:44.889Z,14.63
2023-04-20T23:56:14.198Z,13.90
2023-04-20T23:58:43.358Z,13.73
